sensor_id;sensor_type;location;lat;lon;timestamp;pressure;altitude;pressure_sealevel;temperature;humidity
78615;BME280;67937;52.488;20.952;2023-09-12T00:00:57;100368.88;;;16.33;75.67
78615;BME280;67937;52.488;20.952;2023-09-12T00:03:33;100368.52;;;16.29;75.70
78615;BME280;67937;52.488;20.952;2023-09-12T00:06:01;100368.73;;;16.29;75.68
78615;BME280;67937;52.488;20.952;2023-09-12T00:08:28;100367.16;;;16.27;75.84
78615;BME280;67937;52.488;20.952;2023-09-12T00:11:07;100364.56;;;16.24;75.67
78615;BME280;67937;52.488;20.952;2023-09-12T00:13:38;100366.73;;;16.23;75.64
78615;BME280;67937;52.488;20.952;2023-09-12T00:16:05;100367.84;;;16.19;75.98
78615;BME280;67937;52.488;20.952;2023-09-12T00:18:32;100362.31;;;16.14;76.08
78615;BME280;67937;52.488;20.952;2023-09-12T00:21:00;100365.85;;;16.14;76.26
78615;BME280;67937;52.488;20.952;2023-09-12T00:23:27;100362.23;;;16.11;76.38
78615;BME280;67937;52.488;20.952;2023-09-12T00:25:53;100363.20;;;16.14;76.12
78615;BME280;67937;52.488;20.952;2023-09-12T00:28:20;100365.18;;;16.13;76.24
78615;BME280;67937;52.488;20.952;2023-09-12T00:30:47;100367.15;;;16.13;76.45
78615;BME280;67937;52.488;20.952;2023-09-12T00:33:13;100364.72;;;16.09;76.47
78615;BME280;67937;52.488;20.952;2023-09-12T00:35:40;100364.90;;;16.11;76.60
78615;BME280;67937;52.488;20.952;2023-09-12T00:38:09;100370.80;;;16.06;76.62
78615;BME280;67937;52.488;20.952;2023-09-12T00:40:35;100368.12;;;16.06;76.73
78615;BME280;67937;52.488;20.952;2023-09-12T00:43:03;100372.56;;;16.06;76.63
78615;BME280;67937;52.488;20.952;2023-09-12T00:45:30;100370.68;;;16.05;76.72
78615;BME280;67937;52.488;20.952;2023-09-12T00:47:58;100374.16;;;16.01;76.89
78615;BME280;67937;52.488;20.952;2023-09-12T00:50:25;100377.06;;;16.05;76.79
78615;BME280;67937;52.488;20.952;2023-09-12T00:52:53;100373.15;;;16.07;76.58
78615;BME280;67937;52.488;20.952;2023-09-12T00:55:20;100371.42;;;16.10;76.42
78615;BME280;67937;52.488;20.952;2023-09-12T00:57:47;100369.80;;;16.10;76.21
78615;BME280;67937;52.488;20.952;2023-09-12T01:00:15;100369.12;;;16.05;76.45
78615;BME280;67937;52.488;20.952;2023-09-12T01:02:44;100368.38;;;16.00;76.74
78615;BME280;67937;52.488;20.952;2023-09-12T01:05:13;100368.33;;;15.98;76.96
78615;BME280;67937;52.488;20.952;2023-09-12T01:07:41;100370.59;;;16.01;76.79
78615;BME280;67937;52.488;20.952;2023-09-12T01:10:09;100365.84;;;16.03;76.87
78615;BME280;67937;52.488;20.952;2023-09-12T01:12:36;100366.11;;;16.04;76.86
78615;BME280;67937;52.488;20.952;2023-09-12T01:15:03;100364.47;;;16.03;77.21
78615;BME280;67937;52.488;20.952;2023-09-12T01:17:32;100361.13;;;16.03;77.03
78615;BME280;67937;52.488;20.952;2023-09-12T01:19:59;100363.45;;;16.04;76.97
78615;BME280;67937;52.488;20.952;2023-09-12T01:25:55;100354.42;;;16.04;76.92
78615;BME280;67937;52.488;20.952;2023-09-12T01:28:29;100357.09;;;16.00;76.79
78615;BME280;67937;52.488;20.952;2023-09-12T01:30:58;100358.72;;;16.02;76.94
78615;BME280;67937;52.488;20.952;2023-09-12T01:33:26;100355.89;;;16.03;76.72
78615;BME280;67937;52.488;20.952;2023-09-12T01:35:53;100357.27;;;16.05;76.75
78615;BME280;67937;52.488;20.952;2023-09-12T01:38:21;100357.52;;;16.07;76.66
78615;BME280;67937;52.488;20.952;2023-09-12T01:40:50;100356.31;;;16.06;76.45
78615;BME280;67937;52.488;20.952;2023-09-12T01:43:22;100355.25;;;16.06;76.53
78615;BME280;67937;52.488;20.952;2023-09-12T01:45:51;100359.39;;;16.02;76.46
78615;BME280;67937;52.488;20.952;2023-09-12T01:48:21;100354.08;;;15.95;76.52
78615;BME280;67937;52.488;20.952;2023-09-12T01:50:48;100354.98;;;15.90;76.60
78615;BME280;67937;52.488;20.952;2023-09-12T01:53:16;100355.27;;;15.85;76.65
78615;BME280;67937;52.488;20.952;2023-09-12T01:55:43;100353.54;;;15.83;76.80
78615;BME280;67937;52.488;20.952;2023-09-12T01:58:12;100352.45;;;15.83;76.73
78615;BME280;67937;52.488;20.952;2023-09-12T02:00:39;100354.24;;;15.83;76.84
78615;BME280;67937;52.488;20.952;2023-09-12T02:03:06;100355.06;;;15.80;76.86
78615;BME280;67937;52.488;20.952;2023-09-12T02:05:33;100353.85;;;15.78;76.98
78615;BME280;67937;52.488;20.952;2023-09-12T02:07:59;100347.74;;;15.75;77.08
78615;BME280;67937;52.488;20.952;2023-09-12T02:10:27;100348.67;;;15.71;77.35
78615;BME280;67937;52.488;20.952;2023-09-12T02:12:54;100351.04;;;15.66;77.48
78615;BME280;67937;52.488;20.952;2023-09-12T02:15:20;100350.98;;;15.66;77.43
78615;BME280;67937;52.488;20.952;2023-09-12T02:17:47;100351.44;;;15.67;77.23
78615;BME280;67937;52.488;20.952;2023-09-12T02:20:16;100349.73;;;15.66;77.52
78615;BME280;67937;52.488;20.952;2023-09-12T02:22:42;100350.13;;;15.66;77.52
78615;BME280;67937;52.488;20.952;2023-09-12T02:25:09;100354.77;;;15.59;77.65
78615;BME280;67937;52.488;20.952;2023-09-12T02:27:35;100354.30;;;15.47;77.81
78615;BME280;67937;52.488;20.952;2023-09-12T02:30:02;100353.74;;;15.44;78.18
78615;BME280;67937;52.488;20.952;2023-09-12T02:32:29;100348.44;;;15.51;78.09
78615;BME280;67937;52.488;20.952;2023-09-12T02:34:56;100349.66;;;15.56;77.75
78615;BME280;67937;52.488;20.952;2023-09-12T02:37:23;100349.83;;;15.58;77.65
78615;BME280;67937;52.488;20.952;2023-09-12T02:39:49;100352.61;;;15.59;77.63
78615;BME280;67937;52.488;20.952;2023-09-12T02:42:16;100350.42;;;15.59;77.66
78615;BME280;67937;52.488;20.952;2023-09-12T02:44:42;100350.33;;;15.59;77.67
78615;BME280;67937;52.488;20.952;2023-09-12T02:47:08;100347.47;;;15.57;77.81
78615;BME280;67937;52.488;20.952;2023-09-12T02:49:35;100347.86;;;15.58;77.55
78615;BME280;67937;52.488;20.952;2023-09-12T02:52:02;100351.38;;;15.59;77.62
78615;BME280;67937;52.488;20.952;2023-09-12T02:54:28;100349.77;;;15.57;77.70
78615;BME280;67937;52.488;20.952;2023-09-12T02:56:55;100350.83;;;15.55;77.71
78615;BME280;67937;52.488;20.952;2023-09-12T02:59:21;100350.92;;;15.58;77.23
78615;BME280;67937;52.488;20.952;2023-09-12T03:01:48;100351.55;;;15.55;77.24
78615;BME280;67937;52.488;20.952;2023-09-12T03:04:14;100352.82;;;15.51;77.19
78615;BME280;67937;52.488;20.952;2023-09-12T03:06:41;100351.94;;;15.48;77.46
78615;BME280;67937;52.488;20.952;2023-09-12T03:09:07;100353.83;;;15.47;77.45
78615;BME280;67937;52.488;20.952;2023-09-12T03:11:34;100353.59;;;15.40;77.46
78615;BME280;67937;52.488;20.952;2023-09-12T03:14:00;100354.40;;;15.33;77.75
78615;BME280;67937;52.488;20.952;2023-09-12T03:16:27;100350.91;;;15.34;77.52
78615;BME280;67937;52.488;20.952;2023-09-12T03:18:53;100350.16;;;15.33;77.51
78615;BME280;67937;52.488;20.952;2023-09-12T03:21:20;100356.07;;;15.33;77.23
78615;BME280;67937;52.488;20.952;2023-09-12T03:23:46;100354.08;;;15.31;77.26
78615;BME280;67937;52.488;20.952;2023-09-12T03:26:14;100354.30;;;15.30;77.18
78615;BME280;67937;52.488;20.952;2023-09-12T03:28:40;100361.13;;;15.30;77.54
78615;BME280;67937;52.488;20.952;2023-09-12T03:31:09;100359.05;;;15.29;77.71
78615;BME280;67937;52.488;20.952;2023-09-12T03:33:37;100358.27;;;15.30;77.78
78615;BME280;67937;52.488;20.952;2023-09-12T03:36:05;100358.26;;;15.32;77.88
78615;BME280;67937;52.488;20.952;2023-09-12T03:38:33;100362.35;;;15.35;77.73
78615;BME280;67937;52.488;20.952;2023-09-12T03:41:00;100366.13;;;15.35;77.78
78615;BME280;67937;52.488;20.952;2023-09-12T03:43:27;100366.46;;;15.33;78.06
78615;BME280;67937;52.488;20.952;2023-09-12T03:45:54;100364.87;;;15.33;77.97
78615;BME280;67937;52.488;20.952;2023-09-12T03:48:20;100367.31;;;15.32;78.34
78615;BME280;67937;52.488;20.952;2023-09-12T03:50:47;100369.10;;;15.34;78.02
78615;BME280;67937;52.488;20.952;2023-09-12T03:53:14;100369.06;;;15.36;78.06
78615;BME280;67937;52.488;20.952;2023-09-12T03:55:40;100370.60;;;15.36;78.09
78615;BME280;67937;52.488;20.952;2023-09-12T03:58:07;100370.39;;;15.35;78.07
78615;BME280;67937;52.488;20.952;2023-09-12T04:00:34;100371.48;;;15.31;78.33
78615;BME280;67937;52.488;20.952;2023-09-12T04:03:00;100374.09;;;15.32;78.37
78615;BME280;67937;52.488;20.952;2023-09-12T04:05:27;100373.61;;;15.35;78.18
78615;BME280;67937;52.488;20.952;2023-09-12T04:07:53;100374.13;;;15.35;77.97
78615;BME280;67937;52.488;20.952;2023-09-12T04:10:20;100376.66;;;15.33;77.96
78615;BME280;67937;52.488;20.952;2023-09-12T04:12:47;100376.71;;;15.31;78.03
78615;BME280;67937;52.488;20.952;2023-09-12T04:15:13;100376.81;;;15.28;78.10
78615;BME280;67937;52.488;20.952;2023-09-12T04:17:40;100373.16;;;15.23;78.10
78615;BME280;67937;52.488;20.952;2023-09-12T04:20:06;100374.34;;;15.24;78.00
78615;BME280;67937;52.488;20.952;2023-09-12T04:22:33;100372.06;;;15.24;77.84
78615;BME280;67937;52.488;20.952;2023-09-12T04:25:00;100371.26;;;15.21;77.94
78615;BME280;67937;52.488;20.952;2023-09-12T04:27:26;100371.86;;;15.18;78.23
78615;BME280;67937;52.488;20.952;2023-09-12T04:29:53;100370.96;;;15.10;78.39
78615;BME280;67937;52.488;20.952;2023-09-12T04:32:19;100372.80;;;15.09;78.28
78615;BME280;67937;52.488;20.952;2023-09-12T04:34:49;100372.84;;;15.12;78.16
78615;BME280;67937;52.488;20.952;2023-09-12T04:37:16;100371.20;;;15.13;78.16
78615;BME280;67937;52.488;20.952;2023-09-12T04:39:43;100373.96;;;15.12;78.36
78615;BME280;67937;52.488;20.952;2023-09-12T04:42:10;100379.05;;;15.12;78.30
78615;BME280;67937;52.488;20.952;2023-09-12T04:44:40;100382.24;;;15.14;78.03
78615;BME280;67937;52.488;20.952;2023-09-12T04:47:08;100380.98;;;15.16;78.12
78615;BME280;67937;52.488;20.952;2023-09-12T04:49:35;100384.83;;;15.18;78.43
78615;BME280;67937;52.488;20.952;2023-09-12T04:52:02;100383.20;;;15.19;78.51
78615;BME280;67937;52.488;20.952;2023-09-12T04:54:28;100385.50;;;15.21;78.44
78615;BME280;67937;52.488;20.952;2023-09-12T04:56:55;100386.09;;;15.24;78.35
78615;BME280;67937;52.488;20.952;2023-09-12T04:59:21;100387.02;;;15.27;78.55
78615;BME280;67937;52.488;20.952;2023-09-12T05:01:48;100385.75;;;15.31;78.68
78615;BME280;67937;52.488;20.952;2023-09-12T05:04:15;100389.58;;;15.37;78.51
78615;BME280;67937;52.488;20.952;2023-09-12T05:06:41;100387.90;;;15.42;78.63
78615;BME280;67937;52.488;20.952;2023-09-12T05:09:08;100389.13;;;15.48;78.42
78615;BME280;67937;52.488;20.952;2023-09-12T05:11:36;100392.95;;;15.54;78.68
78615;BME280;67937;52.488;20.952;2023-09-12T05:14:03;100389.93;;;15.57;78.60
78615;BME280;67937;52.488;20.952;2023-09-12T05:16:30;100394.89;;;15.66;78.84
78615;BME280;67937;52.488;20.952;2023-09-12T05:18:56;100391.44;;;15.76;78.63
78615;BME280;67937;52.488;20.952;2023-09-12T05:21:23;100391.29;;;15.84;78.67
78615;BME280;67937;52.488;20.952;2023-09-12T05:23:49;100394.05;;;15.94;78.62
78615;BME280;67937;52.488;20.952;2023-09-12T05:26:16;100395.57;;;16.03;78.54
78615;BME280;67937;52.488;20.952;2023-09-12T05:28:42;100397.49;;;16.14;78.82
78615;BME280;67937;52.488;20.952;2023-09-12T05:31:09;100398.39;;;16.25;79.48
78615;BME280;67937;52.488;20.952;2023-09-12T05:33:35;100401.23;;;16.35;79.30
78615;BME280;67937;52.488;20.952;2023-09-12T05:36:02;100402.31;;;16.47;79.35
78615;BME280;67937;52.488;20.952;2023-09-12T05:38:29;100399.97;;;16.61;79.48
78615;BME280;67937;52.488;20.952;2023-09-12T05:40:56;100400.66;;;16.73;79.70
78615;BME280;67937;52.488;20.952;2023-09-12T05:43:23;100401.84;;;16.83;79.44
78615;BME280;67937;52.488;20.952;2023-09-12T05:45:49;100398.34;;;16.92;79.41
78615;BME280;67937;52.488;20.952;2023-09-12T05:48:16;100402.93;;;17.06;79.55
78615;BME280;67937;52.488;20.952;2023-09-12T05:50:42;100399.25;;;17.20;80.07
78615;BME280;67937;52.488;20.952;2023-09-12T05:53:10;100398.83;;;17.34;80.16
78615;BME280;67937;52.488;20.952;2023-09-12T05:55:36;100397.29;;;17.48;80.04
78615;BME280;67937;52.488;20.952;2023-09-12T05:58:03;100398.00;;;17.61;80.12
78615;BME280;67937;52.488;20.952;2023-09-12T06:00:32;100398.02;;;17.74;80.24
78615;BME280;67937;52.488;20.952;2023-09-12T06:02:59;100397.89;;;17.87;80.80
78615;BME280;67937;52.488;20.952;2023-09-12T06:05:25;100396.62;;;17.99;80.98
78615;BME280;67937;52.488;20.952;2023-09-12T06:07:52;100401.07;;;18.10;81.04
78615;BME280;67937;52.488;20.952;2023-09-12T06:10:18;100401.84;;;18.23;81.12
78615;BME280;67937;52.488;20.952;2023-09-12T06:12:45;100400.59;;;18.37;81.20
78615;BME280;67937;52.488;20.952;2023-09-12T06:15:11;100401.19;;;18.45;81.23
78615;BME280;67937;52.488;20.952;2023-09-12T06:17:38;100408.55;;;18.52;81.17
78615;BME280;67937;52.488;20.952;2023-09-12T06:20:05;100403.80;;;18.64;81.00
78615;BME280;67937;52.488;20.952;2023-09-12T06:22:32;100405.60;;;18.72;81.18
78615;BME280;67937;52.488;20.952;2023-09-12T06:24:59;100410.69;;;18.82;80.75
78615;BME280;67937;52.488;20.952;2023-09-12T06:27:26;100412.42;;;18.92;80.48
78615;BME280;67937;52.488;20.952;2023-09-12T06:29:52;100410.67;;;19.01;80.31
78615;BME280;67937;52.488;20.952;2023-09-12T06:32:19;100413.25;;;19.11;80.05
78615;BME280;67937;52.488;20.952;2023-09-12T06:34:47;100418.09;;;19.21;79.91
78615;BME280;67937;52.488;20.952;2023-09-12T06:37:13;100417.42;;;19.33;79.70
78615;BME280;67937;52.488;20.952;2023-09-12T06:39:40;100416.29;;;19.41;79.56
78615;BME280;67937;52.488;20.952;2023-09-12T06:42:08;100413.79;;;19.50;79.45
78615;BME280;67937;52.488;20.952;2023-09-12T06:44:35;100412.50;;;19.60;79.24
78615;BME280;67937;52.488;20.952;2023-09-12T06:47:04;100412.89;;;19.71;79.06
78615;BME280;67937;52.488;20.952;2023-09-12T06:49:30;100410.23;;;19.83;78.78
78615;BME280;67937;52.488;20.952;2023-09-12T06:51:58;100414.48;;;19.93;78.44
78615;BME280;67937;52.488;20.952;2023-09-12T06:54:25;100413.27;;;20.07;78.22
78615;BME280;67937;52.488;20.952;2023-09-12T06:56:51;100418.67;;;20.25;77.64
78615;BME280;67937;52.488;20.952;2023-09-12T06:59:18;100415.66;;;20.41;76.85
78615;BME280;67937;52.488;20.952;2023-09-12T07:01:44;100415.71;;;20.57;76.05
78615;BME280;67937;52.488;20.952;2023-09-12T07:04:11;100414.69;;;20.71;75.80
78615;BME280;67937;52.488;20.952;2023-09-12T07:06:38;100412.43;;;20.82;75.39
78615;BME280;67937;52.488;20.952;2023-09-12T07:09:04;100415.04;;;20.91;75.40
78615;BME280;67937;52.488;20.952;2023-09-12T07:11:31;100416.89;;;21.08;75.19
78615;BME280;67937;52.488;20.952;2023-09-12T07:13:57;100417.46;;;21.23;74.91
78615;BME280;67937;52.488;20.952;2023-09-12T07:16:24;100419.79;;;21.36;74.58
78615;BME280;67937;52.488;20.952;2023-09-12T07:18:51;100418.15;;;21.47;74.60
78615;BME280;67937;52.488;20.952;2023-09-12T07:21:18;100418.29;;;21.61;74.38
78615;BME280;67937;52.488;20.952;2023-09-12T07:23:45;100420.97;;;21.77;73.48
78615;BME280;67937;52.488;20.952;2023-09-12T07:26:13;100422.58;;;21.94;72.45
78615;BME280;67937;52.488;20.952;2023-09-12T07:28:40;100421.20;;;22.07;70.68
78615;BME280;67937;52.488;20.952;2023-09-12T07:31:06;100424.29;;;22.12;70.21
78615;BME280;67937;52.488;20.952;2023-09-12T07:33:33;100424.00;;;22.15;70.38
78615;BME280;67937;52.488;20.952;2023-09-12T07:35:59;100424.92;;;22.25;70.06
78615;BME280;67937;52.488;20.952;2023-09-12T07:38:28;100422.94;;;22.26;70.66
78615;BME280;67937;52.488;20.952;2023-09-12T07:40:57;100423.48;;;22.50;69.78
78615;BME280;67937;52.488;20.952;2023-09-12T07:43:23;100417.79;;;22.52;70.08
78615;BME280;67937;52.488;20.952;2023-09-12T07:45:55;100421.11;;;22.61;70.09
78615;BME280;67937;52.488;20.952;2023-09-12T07:48:21;100421.98;;;22.68;70.37
78615;BME280;67937;52.488;20.952;2023-09-12T07:50:48;100417.14;;;22.88;69.83
78615;BME280;67937;52.488;20.952;2023-09-12T07:53:14;100419.80;;;22.92;70.02
78615;BME280;67937;52.488;20.952;2023-09-12T07:55:41;100420.61;;;23.19;68.59
78615;BME280;67937;52.488;20.952;2023-09-12T07:58:15;100420.25;;;23.22;69.08
78615;BME280;67937;52.488;20.952;2023-09-12T08:00:44;100424.77;;;23.40;68.09
78615;BME280;67937;52.488;20.952;2023-09-12T08:03:11;100418.10;;;23.43;67.62
78615;BME280;67937;52.488;20.952;2023-09-12T08:05:37;100416.56;;;23.44;67.91
78615;BME280;67937;52.488;20.952;2023-09-12T08:08:04;100414.11;;;23.63;67.69
78615;BME280;67937;52.488;20.952;2023-09-12T08:10:31;100413.30;;;23.72;66.93
78615;BME280;67937;52.488;20.952;2023-09-12T08:12:58;100416.09;;;23.77;67.38
78615;BME280;67937;52.488;20.952;2023-09-12T08:15:24;100413.45;;;23.93;67.08
78615;BME280;67937;52.488;20.952;2023-09-12T08:17:51;100417.57;;;24.02;66.42
78615;BME280;67937;52.488;20.952;2023-09-12T08:20:19;100413.40;;;24.18;66.40
78615;BME280;67937;52.488;20.952;2023-09-12T08:22:46;100415.05;;;24.24;66.09
78615;BME280;67937;52.488;20.952;2023-09-12T08:25:14;100415.02;;;24.39;65.32
78615;BME280;67937;52.488;20.952;2023-09-12T08:27:41;100414.86;;;24.45;65.69
78615;BME280;67937;52.488;20.952;2023-09-12T08:30:10;100416.73;;;24.50;65.36
78615;BME280;67937;52.488;20.952;2023-09-12T08:32:37;100418.23;;;24.60;64.10
78615;BME280;67937;52.488;20.952;2023-09-12T08:35:06;100420.81;;;24.56;63.88
78615;BME280;67937;52.488;20.952;2023-09-12T08:37:33;100419.86;;;24.65;63.21
78615;BME280;67937;52.488;20.952;2023-09-12T08:40:00;100415.20;;;24.66;63.04
78615;BME280;67937;52.488;20.952;2023-09-12T08:42:27;100418.17;;;24.70;62.67
78615;BME280;67937;52.488;20.952;2023-09-12T08:44:55;100416.79;;;24.76;62.25
78615;BME280;67937;52.488;20.952;2023-09-12T08:47:22;100420.48;;;24.78;62.57
78615;BME280;67937;52.488;20.952;2023-09-12T08:49:49;100418.41;;;24.81;64.05
78615;BME280;67937;52.488;20.952;2023-09-12T08:52:16;100417.66;;;24.98;63.80
78615;BME280;67937;52.488;20.952;2023-09-12T08:54:43;100420.38;;;25.17;62.24
78615;BME280;67937;52.488;20.952;2023-09-12T08:57:10;100417.26;;;25.25;62.17
78615;BME280;67937;52.488;20.952;2023-09-12T08:59:39;100415.27;;;25.28;61.60
78615;BME280;67937;52.488;20.952;2023-09-12T09:02:08;100414.42;;;25.30;61.17
78615;BME280;67937;52.488;20.952;2023-09-12T09:04:36;100407.38;;;25.28;61.71
78615;BME280;67937;52.488;20.952;2023-09-12T09:07:04;100408.84;;;25.30;62.50
78615;BME280;67937;52.488;20.952;2023-09-12T09:09:31;100408.61;;;25.42;62.59
78615;BME280;67937;52.488;20.952;2023-09-12T09:11:59;100407.24;;;25.57;62.13
78615;BME280;67937;52.488;20.952;2023-09-12T09:14:25;100406.57;;;25.68;61.99
78615;BME280;67937;52.488;20.952;2023-09-12T09:16:52;100407.81;;;25.78;61.20
78615;BME280;67937;52.488;20.952;2023-09-12T09:19:18;100406.45;;;25.80;61.54
78615;BME280;67937;52.488;20.952;2023-09-12T09:21:45;100406.90;;;25.92;61.68
78615;BME280;67937;52.488;20.952;2023-09-12T09:24:14;100403.69;;;25.96;61.56
78615;BME280;67937;52.488;20.952;2023-09-12T09:26:50;100402.02;;;26.07;60.87
78615;BME280;67937;52.488;20.952;2023-09-12T09:29:18;100397.06;;;26.11;60.39
78615;BME280;67937;52.488;20.952;2023-09-12T09:31:48;100399.25;;;26.15;60.94
78615;BME280;67937;52.488;20.952;2023-09-12T09:34:20;100400.48;;;26.26;59.23
78615;BME280;67937;52.488;20.952;2023-09-12T09:36:51;100397.14;;;26.23;60.27
78615;BME280;67937;52.488;20.952;2023-09-12T09:39:19;100397.35;;;26.23;60.37
78615;BME280;67937;52.488;20.952;2023-09-12T09:41:56;100397.16;;;26.42;59.20
78615;BME280;67937;52.488;20.952;2023-09-12T09:44:25;100399.35;;;26.45;59.70
78615;BME280;67937;52.488;20.952;2023-09-12T09:46:55;100398.33;;;26.53;57.85
78615;BME280;67937;52.488;20.952;2023-09-12T09:49:26;100396.45;;;26.51;57.12
78615;BME280;67937;52.488;20.952;2023-09-12T09:51:54;100395.55;;;26.46;57.35
78615;BME280;67937;52.488;20.952;2023-09-12T09:54:24;100390.98;;;26.51;56.84
78615;BME280;67937;52.488;20.952;2023-09-12T09:56:55;100391.92;;;26.55;56.13
78615;BME280;67937;52.488;20.952;2023-09-12T09:59:24;100392.02;;;26.52;55.83
78615;BME280;67937;52.488;20.952;2023-09-12T10:01:56;100396.14;;;26.54;56.52
78615;BME280;67937;52.488;20.952;2023-09-12T10:04:24;100396.20;;;26.60;57.24
78615;BME280;67937;52.488;20.952;2023-09-12T10:06:57;100391.65;;;26.75;57.01
78615;BME280;67937;52.488;20.952;2023-09-12T10:09:27;100382.92;;;26.85;55.80
78615;BME280;67937;52.488;20.952;2023-09-12T10:11:55;100386.39;;;26.93;56.64
78615;BME280;67937;52.488;20.952;2023-09-12T10:14:23;100386.14;;;26.96;56.57
78615;BME280;67937;52.488;20.952;2023-09-12T10:16:57;100383.69;;;26.99;56.97
78615;BME280;67937;52.488;20.952;2023-09-12T10:19:43;100381.52;;;27.13;55.68
78615;BME280;67937;52.488;20.952;2023-09-12T10:22:27;100378.49;;;27.30;53.68
78615;BME280;67937;52.488;20.952;2023-09-12T10:24:56;100373.41;;;27.30;53.26
78615;BME280;67937;52.488;20.952;2023-09-12T10:27:24;100378.38;;;27.33;54.54
78615;BME280;67937;52.488;20.952;2023-09-12T10:29:51;100375.45;;;27.49;54.27
78615;BME280;67937;52.488;20.952;2023-09-12T10:32:19;100375.22;;;27.55;54.37
78615;BME280;67937;52.488;20.952;2023-09-12T10:34:46;100373.44;;;27.66;54.29
78615;BME280;67937;52.488;20.952;2023-09-12T10:37:16;100376.65;;;27.79;53.87
78615;BME280;67937;52.488;20.952;2023-09-12T10:39:43;100371.95;;;28.00;50.75
78615;BME280;67937;52.488;20.952;2023-09-12T10:42:12;100371.67;;;27.99;52.09
78615;BME280;67937;52.488;20.952;2023-09-12T10:44:39;100368.36;;;28.11;51.01
78615;BME280;67937;52.488;20.952;2023-09-12T10:47:06;100361.61;;;28.22;50.03
78615;BME280;67937;52.488;20.952;2023-09-12T10:49:33;100362.02;;;28.30;50.15
78615;BME280;67937;52.488;20.952;2023-09-12T10:52:00;100364.30;;;28.36;50.05
78615;BME280;67937;52.488;20.952;2023-09-12T10:54:38;100365.52;;;28.40;49.99
78615;BME280;67937;52.488;20.952;2023-09-12T10:57:06;100363.42;;;28.49;49.43
78615;BME280;67937;52.488;20.952;2023-09-12T10:59:33;100357.94;;;28.48;49.91
78615;BME280;67937;52.488;20.952;2023-09-12T11:02:36;100357.78;;;28.60;49.92
78615;BME280;67937;52.488;20.952;2023-09-12T11:05:04;100359.11;;;28.70;50.02
78615;BME280;67937;52.488;20.952;2023-09-12T11:07:33;100355.77;;;28.82;49.94
78615;BME280;67937;52.488;20.952;2023-09-12T11:12:42;100356.45;;;29.11;46.10
78615;BME280;67937;52.488;20.952;2023-09-12T11:15:09;100353.48;;;29.15;45.80
78615;BME280;67937;52.488;20.952;2023-09-12T11:17:40;100354.89;;;29.10;47.56
78615;BME280;67937;52.488;20.952;2023-09-12T11:20:07;100357.75;;;29.26;47.93
78615;BME280;67937;52.488;20.952;2023-09-12T11:22:37;100352.23;;;29.44;47.27
78615;BME280;67937;52.488;20.952;2023-09-12T11:25:23;100348.14;;;29.45;44.16
78615;BME280;67937;52.488;20.952;2023-09-12T11:30:23;100350.48;;;28.82;46.67
78615;BME280;67937;52.488;20.952;2023-09-12T11:32:53;100349.91;;;28.62;47.12
78615;BME280;67937;52.488;20.952;2023-09-12T11:35:24;100351.29;;;28.43;46.99
78615;BME280;67937;52.488;20.952;2023-09-12T11:37:53;100352.55;;;28.07;47.54
78615;BME280;67937;52.488;20.952;2023-09-12T11:40:26;100353.98;;;27.83;48.53
78615;BME280;67937;52.488;20.952;2023-09-12T11:42:52;100351.86;;;27.73;48.83
78615;BME280;67937;52.488;20.952;2023-09-12T11:45:21;100352.08;;;27.64;49.50
78615;BME280;67937;52.488;20.952;2023-09-12T11:47:49;100350.47;;;27.57;49.70
78615;BME280;67937;52.488;20.952;2023-09-12T11:50:32;100347.00;;;27.59;50.13
78615;BME280;67937;52.488;20.952;2023-09-12T11:53:06;100345.45;;;27.63;50.94
78615;BME280;67937;52.488;20.952;2023-09-12T11:55:35;100349.02;;;27.52;50.19
78615;BME280;67937;52.488;20.952;2023-09-12T11:58:02;100347.66;;;27.45;50.35
78615;BME280;67937;52.488;20.952;2023-09-12T12:00:29;100345.58;;;27.38;50.88
78615;BME280;67937;52.488;20.952;2023-09-12T12:02:56;100348.63;;;27.48;50.97
78615;BME280;67937;52.488;20.952;2023-09-12T12:05:24;100342.80;;;27.70;50.86
78615;BME280;67937;52.488;20.952;2023-09-12T12:07:50;100340.55;;;27.93;50.60
78615;BME280;67937;52.488;20.952;2023-09-12T12:10:17;100336.86;;;28.12;50.02
78615;BME280;67937;52.488;20.952;2023-09-12T12:12:45;100336.15;;;28.31;49.70
78615;BME280;67937;52.488;20.952;2023-09-12T12:15:12;100334.36;;;28.48;49.33
78615;BME280;67937;52.488;20.952;2023-09-12T12:17:42;100333.09;;;28.59;49.38
78615;BME280;67937;52.488;20.952;2023-09-12T12:20:10;100332.73;;;28.69;49.11
78615;BME280;67937;52.488;20.952;2023-09-12T12:22:38;100332.86;;;28.73;48.80
78615;BME280;67937;52.488;20.952;2023-09-12T12:25:11;100331.98;;;28.71;48.84
78615;BME280;67937;52.488;20.952;2023-09-12T12:27:39;100336.09;;;28.60;48.67
78615;BME280;67937;52.488;20.952;2023-09-12T12:30:10;100334.70;;;28.59;49.08
78615;BME280;67937;52.488;20.952;2023-09-12T12:32:44;100333.60;;;28.70;48.69
78615;BME280;67937;52.488;20.952;2023-09-12T12:35:23;100327.29;;;28.77;48.32
78615;BME280;67937;52.488;20.952;2023-09-12T12:37:50;100328.45;;;28.81;48.39
78615;BME280;67937;52.488;20.952;2023-09-12T12:40:17;100328.44;;;28.85;47.91
78615;BME280;67937;52.488;20.952;2023-09-12T12:42:44;100324.10;;;28.86;47.81
78615;BME280;67937;52.488;20.952;2023-09-12T12:45:13;100323.71;;;28.91;47.89
78615;BME280;67937;52.488;20.952;2023-09-12T12:47:40;100320.51;;;28.92;47.47
78615;BME280;67937;52.488;20.952;2023-09-12T12:50:14;100321.21;;;28.92;47.37
78615;BME280;67937;52.488;20.952;2023-09-12T12:52:42;100314.17;;;28.94;47.35